Sterling, VA (20165)

5:36 PM EST on February 09, 2016 (GMT -0500)
Countryside | | Change Station
CLOSE
Current Station
Personal Weather Station
Location: Sterling, VA
Elevation: 292 ft
Nearby Weather Stations

Elev 292 ft 39.04 °N, 77.42 °W | Updated 8 minutes ago

Mostly Cloudy
Mostly Cloudy
33.6 °F
Feels Like 34 °F
N
1.0
Wind Variable Wind from NNE
Gusts 3.0 mph

Today
High -- | Low -- °F
--% Chance of Precip.
Yesterday
High -- | Low -- °F
Precip. -- in
Pressure 29.60 in
Visibility 10.0 miles
Clouds Few 2200 ft
Scattered Clouds 3100 ft
Mostly Cloudy 5500 ft
Mostly Cloudy 19000 ft
Windchill 34 °F
Dew Point 28 °F
Humidity 79%
Rainfall 0.32 in
Snow Depth Not available.
7:08 AM 5:39 PM
New Moon, 2% visible
METAR KIAD 092152Z 32011KT 10SM FEW022 SCT031 BKN055 BKN190 02/M04 A2960 RMK AO2 SNE05 SLP024 P0000 T00221039
Pressure 29.60 in
Visibility 10.0 miles
Clouds Few 2200 ft
Scattered Clouds 3100 ft
Mostly Cloudy 5500 ft
Mostly Cloudy 19000 ft
Windchill 34 °F
Dew Point 28 °F
Humidity 79%
Rainfall 0.32 in
Snow Depth Not available.
7:08 AM 5:39 PM
New Moon, 2% visible
METAR KIAD 092152Z 32011KT 10SM FEW022 SCT031 BKN055 BKN190 02/M04 A2960 RMK AO2 SNE05 SLP024 P0000 T00221039
Winter Storm Nacio, the third winter storm in five days to affect the Northeast, is bringing pockets of locally heavy snow to parts of the Ohio Valley, Appalachians and mid-Atlantic states Tuesday. Winter storm warnings are posted for parts of southern Pennsylvania, southern Ohio and the higher peaks of the Appalachians. Winter weather advisories, generally for lighter snow accumulations, stretch from northeast Alabama and far north Georgia to southern Connecticut and Long Island.

10-Day Weather Forecast

Almanac

Astronomy

Feb. 09, 2016 Rise Set
Actual Time
Civil Twilight
Nautical Twilight
Astronomical Twilight
Moon
Length of Visible Light
Length of Day
Tomorrow will be .
, % of the Moon is Illuminated

Today's Extremes

State Highs State Lows

Community

WunderPhotos

Upload Photos

1,891,725 photos uploaded!

WunderBlog® & News

Nearby

Air Quality

  Air Quality AQ Index Pollutant
Not available.

Snow Depth

Station Depth Elevation

Earthquake Activity

City Distance Mag. Time & Date
Minimum magnitude displayed is 2.5.

Coastal Water Temperatures

Place Temperature

Stations

Nearby Weather Stations

Station Location Temp. Windchill Dew Point Humidity Wind Precip. Elev Updated Type
                   

Watches & Warnings

There are currently no watches in effect.